Time;durP1;ratioP1;P1;durP2;ratioP2;P2;SDS_P1;SDS_P2;PMS_P1;PMS_P2;Temp;Humidity;BMP_temperature;BMP_pressure;BME280_temperature;BME280_humidity;BME280_pressure;Samples;Min_cycle;Max_cycle;Signal;HPM_P1;HPM_P2
2023/06/18 00:00:58;;;;;;;20.00;11.63;;;;;;;;;;5092683;28;20439;-69
2023/06/18 00:03:25;;;;;;;28.98;12.32;;;;;;;;;;5092644;28;20024;-70
2023/06/18 00:05:50;;;;;;;27.65;12.93;;;;;;;;;;5074781;28;20059;-70
2023/06/18 00:08:15;;;;;;;27.77;12.32;;;;;;;;;;5093131;28;20430;-70
2023/06/18 00:10:41;;;;;;;53.80;13.73;;;;;;;;;;5092002;28;20035;-70
2023/06/18 00:13:06;;;;;;;30.33;11.95;;;;;;;;;;5080384;28;20017;-70
2023/06/18 00:15:32;;;;;;;18.20;10.05;;;;;;;;;;5074953;28;20029;-70
2023/06/18 00:17:57;;;;;;;87.43;14.13;;;;;;;;;;5078817;28;20017;-70
2023/06/18 00:20:23;;;;;;;16.83;9.70;;;;;;;;;;5076172;28;20183;-70
2023/06/18 00:22:48;;;;;;;58.30;13.63;;;;;;;;;;5076315;28;20115;-70
2023/06/18 00:25:14;;;;;;;35.83;12.20;;;;;;;;;;5078271;28;20020;-70
2023/06/18 00:27:40;;;;;;;15.35;8.93;;;;;;;;;;5062465;28;20028;-70
2023/06/18 00:30:06;;;;;;;18.23;10.75;;;;;;;;;;5074738;28;20025;-70
2023/06/18 00:32:31;;;;;;;24.48;11.63;;;;;;;;;;5060627;28;20028;-70
2023/06/18 00:35:00;;;;;;;29.45;10.57;;;;;;;;;;5076021;28;20028;-70
2023/06/18 00:37:27;;;;;;;19.88;11.00;;;;;;;;;;5075695;28;20060;-70
2023/06/18 00:39:53;;;;;;;31.70;11.48;;;;;;;;;;5068786;28;20100;-70
2023/06/18 00:42:20;;;;;;;26.10;12.00;;;;;;;;;;5075706;28;20063;-70
2023/06/18 00:44:45;;;;;;;13.25;8.80;;;;;;;;;;5058027;28;20052;-70
2023/06/18 00:47:14;;;;;;;16.98;9.45;;;;;;;;;;5075815;28;20492;-70
2023/06/18 00:49:43;;;;;;;15.10;9.05;;;;;;;;;;5076081;28;20091;-71
2023/06/18 00:52:12;;;;;;;17.35;9.93;;;;;;;;;;5057710;28;20074;-69
2023/06/18 00:54:39;;;;;;;18.42;9.75;;;;;;;;;;5073339;28;20028;-70
2023/06/18 00:57:08;;;;;;;15.48;8.90;;;;;;;;;;5090546;28;20020;-70
2023/06/18 00:59:34;;;;;;;17.60;10.77;;;;;;;;;;5078192;28;20103;-70
2023/06/18 01:02:00;;;;;;;13.82;8.95;;;;;;;;;;5095546;28;20020;-70
2023/06/18 01:04:27;;;;;;;14.35;9.02;;;;;;;;;;5077561;28;20024;-70
2023/06/18 01:06:54;;;;;;;12.80;8.63;;;;;;;;;;5077783;28;20473;-70
2023/06/18 01:09:23;;;;;;;14.32;8.00;;;;;;;;;;5077360;28;20035;-69
2023/06/18 01:11:51;;;;;;;17.75;10.48;;;;;;;;;;5094251;28;20020;-69
2023/06/18 01:14:25;;;;;;;18.70;10.55;;;;;;;;;;5057828;28;20021;-70
2023/06/18 01:16:53;;;;;;;21.48;11.15;;;;;;;;;;5075051;28;20024;-70
2023/06/18 01:19:55;;;;;;;14.98;9.10;;;;;;;;;;5064824;28;20048;-70
2023/06/18 01:22:42;;;;;;;15.20;9.48;;;;;;;;;;5047014;28;20078;-70
2023/06/18 01:25:08;;;;;;;14.70;10.52;;;;;;;;;;5095357;28;20522;-70
2023/06/18 01:27:40;;;;;;;13.88;8.60;;;;;;;;;;5077088;28;20049;-70
2023/06/18 01:30:07;;;;;;;18.77;10.65;;;;;;;;;;5060888;28;20020;-71
2023/06/18 01:32:32;;;;;;;17.77;10.45;;;;;;;;;;5077073;28;20016;-70
2023/06/18 01:34:57;;;;;;;16.10;10.85;;;;;;;;;;5095159;28;20392;-70
2023/06/18 01:37:38;;;;;;;13.82;8.55;;;;;;;;;;5095029;28;20036;-70
2023/06/18 01:40:17;;;;;;;15.07;9.02;;;;;;;;;;5077038;28;20028;-70
2023/06/18 01:42:51;;;;;;;16.73;8.77;;;;;;;;;;5076488;28;20028;-69
2023/06/18 01:45:24;;;;;;;12.77;8.18;;;;;;;;;;5077338;28;20024;-70
2023/06/18 01:47:50;;;;;;;15.60;9.32;;;;;;;;;;5094650;28;20039;-70
2023/06/18 01:50:16;;;;;;;11.80;7.90;;;;;;;;;;5076687;28;20032;-70
2023/06/18 01:52:43;;;;;;;12.27;8.43;;;;;;;;;;5076585;28;20073;-70
2023/06/18 01:55:10;;;;;;;11.73;7.72;;;;;;;;;;5076405;28;20024;-70
2023/06/18 01:57:35;;;;;;;10.80;7.32;;;;;;;;;;5076691;28;20028;-70
2023/06/18 02:00:04;;;;;;;10.48;7.63;;;;;;;;;;5054465;28;20025;-70
2023/06/18 02:02:29;;;;;;;12.38;7.95;;;;;;;;;;5074055;28;20071;-70
2023/06/18 02:04:54;;;;;;;11.95;7.72;;;;;;;;;;5082449;28;20432;-69
2023/06/18 02:07:20;;;;;;;9.88;6.85;;;;;;;;;;5094517;28;20035;-70
2023/06/18 02:09:45;;;;;;;11.75;7.43;;;;;;;;;;5090769;28;20050;-69
2023/06/18 02:12:11;;;;;;;8.10;6.93;;;;;;;;;;5084143;28;20366;-69
2023/06/18 02:14:37;;;;;;;8.27;5.25;;;;;;;;;;5077948;28;20030;-69
2023/06/18 02:17:03;;;;;;;9.93;6.50;;;;;;;;;;5072989;28;20099;-70
2023/06/18 02:19:28;;;;;;;8.73;5.63;;;;;;;;;;5076161;28;20036;-70
2023/06/18 02:21:54;;;;;;;8.70;5.97;;;;;;;;;;5094149;28;20036;-70
2023/06/18 02:24:19;;;;;;;17.48;8.13;;;;;;;;;;5086170;28;20510;-69
2023/06/18 02:26:45;;;;;;;16.55;7.97;;;;;;;;;;5077633;28;20047;-69
2023/06/18 02:29:10;;;;;;;12.20;7.45;;;;;;;;;;5071462;28;20040;-70
2023/06/18 02:31:35;;;;;;;12.13;7.20;;;;;;;;;;5084313;28;20035;-69
2023/06/18 02:34:01;;;;;;;8.60;6.10;;;;;;;;;;5093660;28;20027;-69
2023/06/18 02:36:27;;;;;;;8.18;5.35;;;;;;;;;;5085084;28;20036;-69
2023/06/18 02:38:52;;;;;;;12.13;7.22;;;;;;;;;;5073628;28;20027;-70
2023/06/18 02:41:19;;;;;;;10.48;6.82;;;;;;;;;;5055143;28;20026;-69
2023/06/18 02:43:47;;;;;;;11.18;7.18;;;;;;;;;;5082908;28;20024;-69
2023/06/18 02:46:12;;;;;;;9.15;6.15;;;;;;;;;;5073344;28;20020;-70
2023/06/18 02:48:38;;;;;;;11.82;7.60;;;;;;;;;;5092648;28;20035;-70
2023/06/18 02:51:03;;;;;;;27.40;8.57;;;;;;;;;;5093399;28;20016;-70
2023/06/18 02:53:28;;;;;;;12.77;7.43;;;;;;;;;;5093426;28;20039;-70
2023/06/18 02:55:54;;;;;;;13.65;7.32;;;;;;;;;;5075212;28;20031;-70
2023/06/18 02:58:21;;;;;;;15.85;9.20;;;;;;;;;;5093390;28;20020;-70
2023/06/18 03:00:46;;;;;;;10.75;7.10;;;;;;;;;;5075687;28;20047;-70
2023/06/18 03:03:14;;;;;;;23.13;9.63;;;;;;;;;;5093049;28;20058;-70
2023/06/18 03:05:39;;;;;;;10.57;7.30;;;;;;;;;;5075720;28;20512;-69
2023/06/18 03:08:06;;;;;;;10.77;6.65;;;;;;;;;;5075625;28;20032;-70
2023/06/18 03:10:31;;;;;;;12.80;7.80;;;;;;;;;;5073662;28;20050;-69
2023/06/18 03:12:56;;;;;;;16.42;8.95;;;;;;;;;;5061787;28;20017;-69
2023/06/18 03:15:22;;;;;;;13.07;8.35;;;;;;;;;;5077803;28;20469;-69
2023/06/18 03:17:47;;;;;;;9.60;6.25;;;;;;;;;;5093148;28;20119;-69
2023/06/18 03:20:12;;;;;;;9.43;6.43;;;;;;;;;;5093146;28;20074;-69
2023/06/18 03:22:38;;;;;;;9.52;6.55;;;;;;;;;;5093249;28;20024;-69
2023/06/18 03:25:05;;;;;;;12.00;7.43;;;;;;;;;;5092805;28;20020;-69
2023/06/18 03:27:31;;;;;;;10.40;7.38;;;;;;;;;;5093202;28;20032;-69
2023/06/18 03:29:56;;;;;;;12.77;8.50;;;;;;;;;;5092710;28;20016;-69
2023/06/18 03:32:21;;;;;;;11.85;6.97;;;;;;;;;;5074822;28;20028;-69
2023/06/18 03:34:48;;;;;;;13.40;7.88;;;;;;;;;;5092773;28;20065;-70
2023/06/18 03:37:14;;;;;;;10.65;7.00;;;;;;;;;;5093053;28;20085;-70
2023/06/18 03:39:40;;;;;;;12.48;8.82;;;;;;;;;;5074870;28;20572;-70
2023/06/18 03:42:05;;;;;;;10.98;7.50;;;;;;;;;;5092945;28;20024;-69
2023/06/18 03:44:30;;;;;;;10.57;7.40;;;;;;;;;;5095345;28;20020;-69
2023/06/18 03:46:56;;;;;;;10.15;6.75;;;;;;;;;;5097530;28;20046;-69
2023/06/18 03:49:21;;;;;;;11.43;7.45;;;;;;;;;;5079308;28;20020;-69
2023/06/18 03:51:46;;;;;;;9.57;6.68;;;;;;;;;;5078861;28;20031;-70
2023/06/18 03:54:11;;;;;;;8.43;6.32;;;;;;;;;;5097061;28;20024;-69
2023/06/18 03:56:37;;;;;;;9.55;6.35;;;;;;;;;;5097103;28;20102;-69
2023/06/18 03:59:02;;;;;;;10.38;6.20;;;;;;;;;;5096733;28;20031;-69
2023/06/18 04:01:28;;;;;;;10.15;6.50;;;;;;;;;;5078687;28;20020;-70
2023/06/18 04:03:53;;;;;;;8.82;6.38;;;;;;;;;;5096611;28;20111;-69
2023/06/18 04:06:18;;;;;;;10.35;7.03;;;;;;;;;;5096862;28;20481;-69
2023/06/18 04:08:44;;;;;;;10.45;7.65;;;;;;;;;;5096479;28;20549;-69
2023/06/18 04:11:09;;;;;;;10.82;7.40;;;;;;;;;;5078569;28;20056;-69
2023/06/18 04:13:35;;;;;;;9.43;6.78;;;;;;;;;;5096307;28;20098;-69
2023/06/18 04:16:00;;;;;;;10.40;7.18;;;;;;;;;;5096664;28;20031;-70
2023/06/18 04:18:26;;;;;;;10.27;6.53;;;;;;;;;;5096223;28;20039;-69
2023/06/18 04:20:51;;;;;;;12.05;8.05;;;;;;;;;;5096638;28;20028;-70
2023/06/18 04:23:17;;;;;;;10.82;7.35;;;;;;;;;;5096248;28;20101;-70
2023/06/18 04:25:42;;;;;;;10.38;7.30;;;;;;;;;;5096232;28;20035;-69
2023/06/18 04:28:07;;;;;;;8.50;6.38;;;;;;;;;;5096433;28;20024;-69
2023/06/18 04:30:33;;;;;;;11.48;7.93;;;;;;;;;;5096336;28;20051;-69
2023/06/18 04:32:58;;;;;;;9.23;5.85;;;;;;;;;;5096306;28;20477;-69
2023/06/18 04:35:23;;;;;;;7.03;5.10;;;;;;;;;;5096224;28;20552;-69
2023/06/18 04:37:49;;;;;;;13.07;9.55;;;;;;;;;;5096297;28;20031;-70
2023/06/18 04:40:14;;;;;;;11.80;8.35;;;;;;;;;;5077972;28;20043;-69
2023/06/18 04:42:40;;;;;;;12.68;8.50;;;;;;;;;;5077895;28;20035;-70
2023/06/18 04:45:05;;;;;;;12.18;7.55;;;;;;;;;;5095993;28;20039;-70
2023/06/18 04:47:32;;;;;;;12.52;8.55;;;;;;;;;;5096232;28;20028;-70
2023/06/18 04:49:57;;;;;;;12.55;8.48;;;;;;;;;;5095981;28;20020;-70
2023/06/18 04:52:22;;;;;;;11.77;8.60;;;;;;;;;;5077004;28;20020;-70
2023/06/18 04:54:48;;;;;;;11.45;7.68;;;;;;;;;;5095244;28;20054;-70
2023/06/18 04:57:13;;;;;;;14.35;9.15;;;;;;;;;;5096014;28;20028;-70
2023/06/18 04:59:39;;;;;;;13.40;9.05;;;;;;;;;;5095872;28;20027;-69
2023/06/18 05:02:06;;;;;;;15.30;9.82;;;;;;;;;;5095295;28;20020;-70
2023/06/18 05:04:31;;;;;;;10.25;6.95;;;;;;;;;;5077380;28;20024;-69
2023/06/18 05:06:56;;;;;;;10.63;7.38;;;;;;;;;;5095716;28;20023;-70
2023/06/18 05:09:22;;;;;;;13.73;9.70;;;;;;;;;;5095865;28;20028;-70
2023/06/18 05:11:47;;;;;;;16.77;10.73;;;;;;;;;;5095713;28;20102;-70
2023/06/18 05:14:12;;;;;;;15.40;10.05;;;;;;;;;;5095722;28;20034;-70
2023/06/18 05:16:38;;;;;;;12.63;8.43;;;;;;;;;;5096227;28;20024;-70
2023/06/18 05:19:03;;;;;;;12.27;8.05;;;;;;;;;;5095637;28;20020;-70
2023/06/18 05:21:29;;;;;;;13.18;9.27;;;;;;;;;;5077592;28;20031;-70
2023/06/18 05:23:54;;;;;;;14.77;9.65;;;;;;;;;;5095464;28;20058;-69
2023/06/18 05:26:21;;;;;;;15.52;10.75;;;;;;;;;;5095802;28;20020;-70
2023/06/18 05:28:46;;;;;;;17.42;11.07;;;;;;;;;;5095461;28;20366;-70
2023/06/18 05:31:11;;;;;;;16.77;10.80;;;;;;;;;;5077346;28;20153;-70
2023/06/18 05:33:37;;;;;;;17.52;10.02;;;;;;;;;;5095215;28;20019;-70
2023/06/18 05:36:02;;;;;;;15.57;10.75;;;;;;;;;;5095269;28;20488;-70
2023/06/18 05:38:28;;;;;;;13.65;8.98;;;;;;;;;;5077162;28;20113;-69
2023/06/18 05:40:53;;;;;;;16.40;10.30;;;;;;;;;;5095231;28;20507;-70
2023/06/18 05:43:18;;;;;;;16.27;10.95;;;;;;;;;;5077077;28;20070;-70
2023/06/18 05:45:43;;;;;;;13.63;9.10;;;;;;;;;;5095391;28;20016;-70
2023/06/18 05:48:09;;;;;;;12.85;9.20;;;;;;;;;;5095008;28;20446;-70
2023/06/18 05:50:35;;;;;;;14.73;9.52;;;;;;;;;;5095582;28;20106;-70
2023/06/18 05:53:00;;;;;;;16.45;9.07;;;;;;;;;;5094750;28;20066;-70
2023/06/18 05:55:25;;;;;;;12.85;9.02;;;;;;;;;;5094904;28;20035;-70
2023/06/18 05:57:51;;;;;;;15.65;10.18;;;;;;;;;;5094809;28;20107;-70
2023/06/18 06:00:16;;;;;;;14.55;9.98;;;;;;;;;;5094903;28;20046;-70
2023/06/18 06:02:43;;;;;;;11.55;8.18;;;;;;;;;;5076617;28;20392;-70
2023/06/18 06:05:08;;;;;;;13.40;8.98;;;;;;;;;;5075963;28;20089;-70
2023/06/18 06:07:33;;;;;;;12.98;8.88;;;;;;;;;;5075937;28;20016;-70
2023/06/18 06:09:59;;;;;;;12.25;9.07;;;;;;;;;;5094631;28;20028;-70
2023/06/18 06:12:25;;;;;;;12.45;8.90;;;;;;;;;;5094714;28;20060;-70
2023/06/18 06:14:50;;;;;;;12.70;8.70;;;;;;;;;;5094553;28;20032;-70
2023/06/18 06:17:15;;;;;;;13.70;10.10;;;;;;;;;;5094508;28;20020;-71
2023/06/18 06:19:41;;;;;;;13.00;9.23;;;;;;;;;;5094557;28;20102;-70
2023/06/18 06:22:06;;;;;;;12.10;8.68;;;;;;;;;;5094293;28;20031;-70
2023/06/18 06:24:31;;;;;;;11.32;8.90;;;;;;;;;;5094663;28;20024;-70
2023/06/18 06:26:56;;;;;;;11.43;8.52;;;;;;;;;;5094316;28;20020;-71
2023/06/18 06:29:22;;;;;;;10.48;7.68;;;;;;;;;;5076182;28;20028;-70
2023/06/18 06:31:47;;;;;;;14.27;8.82;;;;;;;;;;5094981;28;20043;-71
2023/06/18 06:34:12;;;;;;;9.35;7.50;;;;;;;;;;5094380;28;20035;-71
2023/06/18 06:36:38;;;;;;;9.93;7.22;;;;;;;;;;5087674;28;20020;-70
2023/06/18 06:39:04;;;;;;;8.43;6.63;;;;;;;;;;5075334;28;20104;-70
2023/06/18 06:41:29;;;;;;;12.07;8.50;;;;;;;;;;5059885;28;20024;-70
2023/06/18 06:43:54;;;;;;;10.80;6.72;;;;;;;;;;5073429;28;20025;-71
2023/06/18 06:46:20;;;;;;;12.80;8.60;;;;;;;;;;5073677;28;20032;-70
2023/06/18 06:48:45;;;;;;;10.05;7.53;;;;;;;;;;5073546;28;20047;-70
2023/06/18 06:51:10;;;;;;;10.68;7.35;;;;;;;;;;5073509;28;20107;-70
2023/06/18 06:53:35;;;;;;;10.38;7.38;;;;;;;;;;5072639;28;20021;-71
2023/06/18 06:56:02;;;;;;;9.60;6.50;;;;;;;;;;5062943;28;20050;-70
2023/06/18 06:58:27;;;;;;;10.32;7.03;;;;;;;;;;5093858;28;20099;-70
2023/06/18 07:00:53;;;;;;;9.13;7.95;;;;;;;;;;5093386;28;20058;-70
2023/06/18 07:03:18;;;;;;;11.32;7.57;;;;;;;;;;5093526;28;20019;-70
2023/06/18 07:05:44;;;;;;;9.52;7.38;;;;;;;;;;5093485;28;20446;-70
2023/06/18 07:08:09;;;;;;;10.27;7.13;;;;;;;;;;5093888;28;20381;-70
2023/06/18 07:10:34;;;;;;;9.18;5.78;;;;;;;;;;5093517;28;20022;-71
2023/06/18 07:13:00;;;;;;;9.65;7.55;;;;;;;;;;5093234;28;20397;-70
2023/06/18 07:15:25;;;;;;;8.43;7.32;;;;;;;;;;5093402;28;20435;-70
2023/06/18 07:17:51;;;;;;;9.65;7.65;;;;;;;;;;5093260;28;20055;-70
2023/06/18 07:20:16;;;;;;;10.07;6.57;;;;;;;;;;5093414;28;20051;-70
2023/06/18 07:22:41;;;;;;;8.88;7.13;;;;;;;;;;5093215;28;20035;-70
2023/06/18 07:25:07;;;;;;;12.98;7.60;;;;;;;;;;5093932;28;20081;-70
2023/06/18 07:27:33;;;;;;;10.45;6.60;;;;;;;;;;5091132;28;20024;-70
2023/06/18 07:29:59;;;;;;;10.10;7.68;;;;;;;;;;5067323;28;20024;-72
2023/06/18 07:32:24;;;;;;;11.07;7.13;;;;;;;;;;5072937;28;20481;-71
2023/06/18 07:34:49;;;;;;;9.27;7.28;;;;;;;;;;5072661;28;20090;-70
2023/06/18 07:37:15;;;;;;;10.30;7.80;;;;;;;;;;5072883;28;20417;-71
2023/06/18 07:39:40;;;;;;;11.80;7.78;;;;;;;;;;5073314;28;20134;-70
2023/06/18 07:42:05;;;;;;;10.20;7.75;;;;;;;;;;5075255;28;20051;-70
2023/06/18 07:44:31;;;;;;;9.55;6.90;;;;;;;;;;5082738;28;20031;-70
2023/06/18 07:46:56;;;;;;;9.35;7.18;;;;;;;;;;5089142;28;20078;-70
2023/06/18 07:49:21;;;;;;;8.80;6.85;;;;;;;;;;5092702;28;20077;-70
2023/06/18 07:51:47;;;;;;;9.15;6.43;;;;;;;;;;5078718;28;20027;-70
2023/06/18 07:54:13;;;;;;;8.88;6.93;;;;;;;;;;5061298;28;20107;-70
2023/06/18 07:56:38;;;;;;;11.25;7.07;;;;;;;;;;5090678;28;20146;-71
2023/06/18 07:59:04;;;;;;;10.50;6.22;;;;;;;;;;5092580;28;20469;-70
2023/06/18 08:01:29;;;;;;;8.85;6.32;;;;;;;;;;5074518;28;20028;-71
2023/06/18 08:03:54;;;;;;;11.05;6.57;;;;;;;;;;5092644;28;20027;-71
2023/06/18 08:06:20;;;;;;;8.32;6.35;;;;;;;;;;5072166;28;20032;-70
2023/06/18 08:08:48;;;;;;;9.10;6.13;;;;;;;;;;5072525;28;20485;-70
2023/06/18 08:11:13;;;;;;;7.93;5.72;;;;;;;;;;5058016;28;20025;-70
2023/06/18 08:13:39;;;;;;;8.15;5.47;;;;;;;;;;5072972;28;20025;-71
2023/06/18 08:16:04;;;;;;;6.50;5.20;;;;;;;;;;5090540;28;20101;-70
2023/06/18 08:18:29;;;;;;;7.68;5.53;;;;;;;;;;5092607;28;20055;-70
2023/06/18 08:20:55;;;;;;;8.63;5.30;;;;;;;;;;5090393;28;20024;-70
2023/06/18 08:23:20;;;;;;;13.05;5.93;;;;;;;;;;5092602;28;20024;-70
2023/06/18 08:25:45;;;;;;;8.40;6.28;;;;;;;;;;5092765;28;20107;-70
2023/06/18 08:28:11;;;;;;;7.60;5.57;;;;;;;;;;5081562;28;20048;-70
2023/06/18 08:30:36;;;;;;;7.70;5.93;;;;;;;;;;5089694;28;20077;-72
2023/06/18 08:33:01;;;;;;;8.50;5.80;;;;;;;;;;5095068;28;20050;-70
2023/06/18 08:35:27;;;;;;;7.55;6.60;;;;;;;;;;5096258;28;20390;-71
2023/06/18 08:37:52;;;;;;;7.30;5.20;;;;;;;;;;5094162;28;20034;-71
2023/06/18 08:40:21;;;;;;;8.35;5.60;;;;;;;;;;5094702;28;20024;-70
2023/06/18 08:42:46;;;;;;;9.70;7.57;;;;;;;;;;5075836;28;20393;-70
2023/06/18 08:45:11;;;;;;;9.18;5.95;;;;;;;;;;5088122;28;20028;-70
2023/06/18 08:47:39;;;;;;;8.93;6.10;;;;;;;;;;5089855;28;20073;-71
2023/06/18 08:50:05;;;;;;;9.00;5.80;;;;;;;;;;5096119;28;20027;-70
2023/06/18 08:52:30;;;;;;;7.70;5.53;;;;;;;;;;5077517;28;20028;-70
2023/06/18 08:54:58;;;;;;;8.77;5.80;;;;;;;;;;5077992;28;20034;-71
2023/06/18 08:57:34;;;;;;;8.20;5.97;;;;;;;;;;5077950;28;20035;-70
2023/06/18 09:00:00;;;;;;;7.90;5.93;;;;;;;;;;5094302;23;20123;-73
2023/06/18 09:02:29;;;;;;;9.05;5.80;;;;;;;;;;5074396;28;20103;-74
2023/06/18 09:04:55;;;;;;;6.95;5.32;;;;;;;;;;5075494;28;20480;-73
2023/06/18 09:07:23;;;;;;;8.75;5.88;;;;;;;;;;5073147;28;20145;-73
2023/06/18 09:09:48;;;;;;;8.52;5.93;;;;;;;;;;5070826;28;20467;-74
2023/06/18 09:12:14;;;;;;;10.30;6.43;;;;;;;;;;5068797;28;20051;-74
2023/06/18 09:14:39;;;;;;;7.57;5.55;;;;;;;;;;5078200;28;20023;-74
2023/06/18 09:17:05;;;;;;;8.50;5.60;;;;;;;;;;5075235;28;20085;-74
2023/06/18 09:19:32;;;;;;;7.90;5.72;;;;;;;;;;5074970;28;20063;-74
2023/06/18 09:22:11;;;;;;;7.35;5.55;;;;;;;;;;5075213;28;20024;-74
2023/06/18 09:24:36;;;;;;;6.97;4.97;;;;;;;;;;5075325;28;20025;-74
2023/06/18 09:27:03;;;;;;;8.45;6.65;;;;;;;;;;5075113;28;20440;-74
2023/06/18 09:29:29;;;;;;;9.40;6.25;;;;;;;;;;5077759;28;20028;-74
2023/06/18 09:31:55;;;;;;;8.43;5.95;;;;;;;;;;5075134;28;20389;-72
2023/06/18 09:34:20;;;;;;;9.23;6.35;;;;;;;;;;5074861;28;20020;-72
2023/06/18 09:36:47;;;;;;;8.07;5.88;;;;;;;;;;5074948;28;20107;-72
2023/06/18 09:39:16;;;;;;;8.02;5.78;;;;;;;;;;5073990;28;20495;-72
2023/06/18 09:41:43;;;;;;;7.10;5.97;;;;;;;;;;5073295;28;20414;-73
2023/06/18 09:44:09;;;;;;;9.65;6.63;;;;;;;;;;5090376;28;20035;-76
2023/06/18 09:46:34;;;;;;;7.00;5.78;;;;;;;;;;5090397;28;20028;-74
2023/06/18 09:49:00;;;;;;;8.23;6.40;;;;;;;;;;5075046;28;20025;-75
2023/06/18 09:51:26;;;;;;;8.95;5.85;;;;;;;;;;5077721;28;20028;-76
2023/06/18 09:53:59;;;;;;;8.55;5.13;;;;;;;;;;5074402;28;20049;-76
2023/06/18 09:56:25;;;;;;;8.38;6.07;;;;;;;;;;5089732;28;20032;-75
2023/06/18 09:58:50;;;;;;;8.27;5.88;;;;;;;;;;5090093;28;20024;-75
2023/06/18 10:01:17;;;;;;;8.77;5.53;;;;;;;;;;5076568;28;20031;-76
2023/06/18 10:03:43;;;;;;;8.52;5.45;;;;;;;;;;5094663;28;20020;-74
2023/06/18 10:06:16;;;;;;;6.85;5.65;;;;;;;;;;5090928;28;20032;-76
2023/06/18 10:08:46;;;;;;;7.20;4.90;;;;;;;;;;5094416;28;20024;-76
2023/06/18 10:11:13;;;;;;;8.60;5.57;;;;;;;;;;5091077;28;20024;-75
2023/06/18 10:13:44;;;;;;;6.78;5.03;;;;;;;;;;5094416;28;20027;-75
2023/06/18 10:16:12;;;;;;;7.95;5.50;;;;;;;;;;5073005;28;20020;-73
2023/06/18 10:18:53;;;;;;;6.53;4.88;;;;;;;;;;5072799;28;20111;-69
2023/06/18 10:21:20;;;;;;;7.38;4.80;;;;;;;;;;5073027;28;20478;-68
2023/06/18 10:23:46;;;;;;;6.97;5.10;;;;;;;;;;5073806;28;20036;-69
2023/06/18 10:26:12;;;;;;;7.75;4.68;;;;;;;;;;5056171;28;20052;-69
2023/06/18 10:28:37;;;;;;;6.57;4.78;;;;;;;;;;5072753;28;20430;-69
2023/06/18 10:31:03;;;;;;;5.30;4.32;;;;;;;;;;5076941;28;20524;-69
2023/06/18 10:33:31;;;;;;;5.93;4.80;;;;;;;;;;5094110;28;20069;-69
2023/06/18 10:35:56;;;;;;;6.35;4.30;;;;;;;;;;5092762;28;20020;-69
2023/06/18 10:38:21;;;;;;;6.38;4.63;;;;;;;;;;5074990;28;20036;-74
2023/06/18 10:40:46;;;;;;;6.22;4.18;;;;;;;;;;5072931;28;20028;-75
2023/06/18 10:43:12;;;;;;;6.47;4.53;;;;;;;;;;5073561;28;20378;-73
2023/06/18 10:45:37;;;;;;;5.13;4.20;;;;;;;;;;5090262;28;20116;-73
2023/06/18 10:48:15;;;;;;;5.82;5.22;;;;;;;;;;5093740;28;20039;-73
2023/06/18 10:51:10;;;;;;;5.53;4.38;;;;;;;;;;5092721;28;20166;-73
2023/06/18 10:53:35;;;;;;;4.78;3.67;;;;;;;;;;5078404;28;20059;-73
2023/06/18 10:56:01;;;;;;;5.63;4.70;;;;;;;;;;5080316;28;20020;-73
2023/06/18 10:58:34;;;;;;;5.15;3.88;;;;;;;;;;5092402;28;20104;-73
2023/06/18 11:00:59;;;;;;;5.57;4.40;;;;;;;;;;5092428;28;20477;-73
2023/06/18 11:03:32;;;;;;;5.35;4.38;;;;;;;;;;5092232;28;20032;-74
2023/06/18 11:06:00;;;;;;;5.05;4.07;;;;;;;;;;5092413;28;20030;-74
2023/06/18 11:08:29;;;;;;;4.65;3.95;;;;;;;;;;5092286;28;20102;-74
2023/06/18 11:11:04;;;;;;;6.05;4.25;;;;;;;;;;5092366;28;20039;-73
2023/06/18 11:13:34;;;;;;;5.35;3.92;;;;;;;;;;5092348;28;20043;-73
2023/06/18 11:16:05;;;;;;;5.15;4.43;;;;;;;;;;5092263;28;20393;-76
2023/06/18 11:18:30;;;;;;;5.03;4.13;;;;;;;;;;5092184;28;20110;-76
2023/06/18 11:20:56;;;;;;;5.45;4.03;;;;;;;;;;5093393;28;20040;-76
2023/06/18 11:23:26;;;;;;;5.45;4.18;;;;;;;;;;5092292;28;20035;-76
2023/06/18 11:25:52;;;;;;;5.82;4.07;;;;;;;;;;5092176;28;20076;-75
2023/06/18 11:28:18;;;;;;;4.75;4.07;;;;;;;;;;5092232;28;20028;-74
2023/06/18 11:30:48;;;;;;;6.75;4.40;;;;;;;;;;5093556;28;20107;-73
2023/06/18 11:33:13;;;;;;;5.80;4.18;;;;;;;;;;5092287;28;20031;-74
2023/06/18 11:35:39;;;;;;;5.70;4.20;;;;;;;;;;5092053;28;20020;-73
2023/06/18 11:38:04;;;;;;;4.70;4.13;;;;;;;;;;5093153;28;20028;-74
2023/06/18 11:40:29;;;;;;;5.22;4.28;;;;;;;;;;5093384;28;20027;-73
2023/06/18 11:42:55;;;;;;;4.88;4.00;;;;;;;;;;5091884;28;20081;-74
2023/06/18 11:45:20;;;;;;;5.97;4.30;;;;;;;;;;5091966;28;20119;-73
2023/06/18 11:47:48;;;;;;;5.70;4.30;;;;;;;;;;5093020;28;20080;-73
2023/06/18 11:50:14;;;;;;;7.30;4.80;;;;;;;;;;5091801;28;20023;-73
2023/06/18 11:52:40;;;;;;;5.95;3.88;;;;;;;;;;5091824;28;20054;-72
2023/06/18 11:55:06;;;;;;;6.47;4.03;;;;;;;;;;5091875;28;20056;-74
2023/06/18 11:57:32;;;;;;;5.45;4.15;;;;;;;;;;5091827;28;20020;-73
2023/06/18 11:59:57;;;;;;;5.53;3.88;;;;;;;;;;5092877;28;20028;-73
2023/06/18 12:02:23;;;;;;;5.18;4.25;;;;;;;;;;5091707;28;20032;-72
2023/06/18 12:04:50;;;;;;;6.28;5.22;;;;;;;;;;5094854;28;20436;-74
2023/06/18 12:07:20;;;;;;;5.50;4.55;;;;;;;;;;5097282;28;20465;-73
2023/06/18 12:09:46;;;;;;;6.20;4.50;;;;;;;;;;5095717;28;20024;-74
2023/06/18 12:12:59;;;;;;;6.45;4.60;;;;;;;;;;5097224;28;20024;-72
2023/06/18 12:15:54;;;;;;;4.93;4.00;;;;;;;;;;5037766;28;20052;-73
2023/06/18 12:18:29;;;;;;;6.63;3.90;;;;;;;;;;5054476;28;20044;-73
2023/06/18 12:20:56;;;;;;;5.18;4.00;;;;;;;;;;5082860;28;20060;-73
2023/06/18 12:23:22;;;;;;;5.35;4.03;;;;;;;;;;5096073;28;20099;-72
2023/06/18 12:25:48;;;;;;;6.32;4.07;;;;;;;;;;5095462;28;20039;-73
2023/06/18 12:28:13;;;;;;;4.65;3.90;;;;;;;;;;5095415;28;20028;-74
2023/06/18 12:30:40;;;;;;;7.10;4.25;;;;;;;;;;5095653;28;20489;-73
2023/06/18 12:33:07;;;;;;;4.75;4.03;;;;;;;;;;5097106;28;20115;-74
2023/06/18 12:35:34;;;;;;;6.22;4.18;;;;;;;;;;5096441;28;20058;-73
2023/06/18 12:38:05;;;;;;;6.38;4.20;;;;;;;;;;5095297;28;20077;-72
2023/06/18 12:40:31;;;;;;;6.40;4.78;;;;;;;;;;5096203;28;20020;-74
2023/06/18 12:42:58;;;;;;;6.68;4.20;;;;;;;;;;5096598;28;20020;-73
2023/06/18 12:45:26;;;;;;;6.00;4.22;;;;;;;;;;5095120;28;20034;-74
2023/06/18 12:47:51;;;;;;;5.90;4.28;;;;;;;;;;5095111;28;20020;-73
2023/06/18 12:50:41;;;;;;;6.15;4.07;;;;;;;;;;5095066;28;20020;-74
2023/06/18 12:53:17;;;;;;;6.07;4.35;;;;;;;;;;5096779;28;20024;-72
2023/06/18 12:55:47;;;;;;;;;;;;;;;;;;5095636;28;20027;-73
2023/06/18 12:58:26;;;;;;;4.82;4.07;;;;;;;;;;5094856;28;19908;-73
2023/06/18 13:00:53;;;;;;;7.20;4.40;;;;;;;;;;5094848;28;20027;-74
2023/06/18 13:03:19;;;;;;;5.38;3.88;;;;;;;;;;5094739;28;20028;-73
2023/06/18 13:05:46;;;;;;;5.30;4.05;;;;;;;;;;5094702;28;20042;-74
2023/06/18 13:08:16;;;;;;;6.25;4.30;;;;;;;;;;5094962;28;20496;-73
2023/06/18 13:10:42;;;;;;;6.53;4.10;;;;;;;;;;5094620;28;20138;-73
2023/06/18 13:13:08;;;;;;;5.75;4.05;;;;;;;;;;5094542;28;20469;-73
2023/06/18 13:15:33;;;;;;;4.57;3.80;;;;;;;;;;5094514;28;20028;-73
2023/06/18 13:17:58;;;;;;;5.63;3.75;;;;;;;;;;5094441;28;20023;-73
2023/06/18 13:20:24;;;;;;;5.72;4.88;;;;;;;;;;5077455;28;20374;-73
2023/06/18 13:22:49;;;;;;;6.55;3.75;;;;;;;;;;5094276;28;20020;-73
2023/06/18 13:25:15;;;;;;;5.55;3.85;;;;;;;;;;5095572;28;20056;-73
2023/06/18 13:27:40;;;;;;;4.85;3.65;;;;;;;;;;5094259;28;20028;-73
2023/06/18 13:30:06;;;;;;;5.53;3.95;;;;;;;;;;5095411;28;20504;-74
2023/06/18 13:32:33;;;;;;;5.13;4.03;;;;;;;;;;5077279;28;20019;-73
2023/06/18 13:34:58;;;;;;;5.90;4.13;;;;;;;;;;5094239;28;20028;-73
2023/06/18 13:37:24;;;;;;;4.80;4.15;;;;;;;;;;5095407;28;20500;-73
2023/06/18 13:39:49;;;;;;;6.00;3.72;;;;;;;;;;5095244;28;20145;-73
2023/06/18 13:42:16;;;;;;;5.28;3.97;;;;;;;;;;5077093;28;20039;-73
2023/06/18 13:44:41;;;;;;;4.38;3.70;;;;;;;;;;5093963;28;20020;-73
2023/06/18 13:47:07;;;;;;;4.75;3.97;;;;;;;;;;5093939;28;20024;-73
2023/06/18 13:49:33;;;;;;;4.43;3.75;;;;;;;;;;5076875;28;20077;-73
2023/06/18 13:51:58;;;;;;;6.07;4.68;;;;;;;;;;5095308;28;20020;-72
2023/06/18 13:54:24;;;;;;;4.63;3.75;;;;;;;;;;5094917;28;20034;-72
2023/06/18 13:56:49;;;;;;;5.25;3.92;;;;;;;;;;5093744;28;20055;-72
2023/06/18 13:59:14;;;;;;;4.95;4.25;;;;;;;;;;5093466;28;20489;-73
2023/06/18 14:01:40;;;;;;;4.72;4.22;;;;;;;;;;5093691;28;20417;-73
2023/06/18 14:04:06;;;;;;;7.60;4.60;;;;;;;;;;5094686;28;20028;-73
2023/06/18 14:06:31;;;;;;;5.43;4.40;;;;;;;;;;5094757;28;20028;-72
2023/06/18 14:08:56;;;;;;;6.60;4.32;;;;;;;;;;5094557;28;20434;-73
2023/06/18 14:11:21;;;;;;;5.18;3.88;;;;;;;;;;5094847;28;20501;-73
2023/06/18 14:13:47;;;;;;;6.80;4.07;;;;;;;;;;5094562;28;20019;-73
2023/06/18 14:16:12;;;;;;;5.47;4.60;;;;;;;;;;5076492;28;20389;-72
2023/06/18 14:18:37;;;;;;;5.07;4.05;;;;;;;;;;5094549;28;20061;-73
2023/06/18 14:21:03;;;;;;;5.18;4.47;;;;;;;;;;5094599;28;20401;-73
2023/06/18 14:23:29;;;;;;;6.90;4.35;;;;;;;;;;5093127;28;20107;-74
2023/06/18 14:25:54;;;;;;;5.45;4.30;;;;;;;;;;5094382;28;20093;-73
2023/06/18 14:28:20;;;;;;;4.70;3.85;;;;;;;;;;5093552;28;20500;-74
2023/06/18 14:30:45;;;;;;;6.40;3.60;;;;;;;;;;5093060;28;20039;-74
2023/06/18 14:33:10;;;;;;;7.63;3.75;;;;;;;;;;5093022;28;20102;-73